createdAt,value
2024-05-09T00:04:16.343Z,12.41
2024-05-09T00:06:43.272Z,12.40
2024-05-09T00:09:10.349Z,12.42
2024-05-09T00:11:37.335Z,12.41
2024-05-09T00:14:04.284Z,12.27
2024-05-09T00:16:31.452Z,12.33
2024-05-09T00:18:58.519Z,12.35
2024-05-09T00:21:25.444Z,12.32
2024-05-09T00:23:52.297Z,12.27
2024-05-09T00:26:19.344Z,12.29
2024-05-09T00:28:46.246Z,12.26
2024-05-09T00:31:13.206Z,12.23
2024-05-09T00:33:40.380Z,12.22
2024-05-09T00:36:07.483Z,12.22
2024-05-09T00:38:34.880Z,12.18
2024-05-09T00:41:01.818Z,12.24
2024-05-09T00:43:28.779Z,12.23
2024-05-09T00:45:57.420Z,12.28
2024-05-09T00:48:25.769Z,12.26
2024-05-09T00:50:55.823Z,12.32
2024-05-09T00:53:22.790Z,12.28
2024-05-09T00:55:50.303Z,12.38
2024-05-09T00:58:21.214Z,12.34
2024-05-09T01:00:50.191Z,12.36
2024-05-09T01:05:44.939Z,12.39
2024-05-09T01:08:12.856Z,12.44
2024-05-09T01:10:45.070Z,12.44
2024-05-09T01:13:14.026Z,12.41
2024-05-09T01:15:41.383Z,12.45
2024-05-09T01:18:11.667Z,12.44
2024-05-09T01:20:43.085Z,12.38
2024-05-09T01:23:12.785Z,12.40
2024-05-09T01:25:40.843Z,12.39
2024-05-09T01:28:07.862Z,12.42
2024-05-09T01:30:37.251Z,12.41
2024-05-09T01:33:07.370Z,12.45
2024-05-09T01:35:36.269Z,12.45
2024-05-09T01:38:03.438Z,12.41
2024-05-09T01:40:37.371Z,12.39
2024-05-09T01:43:11.064Z,12.43
2024-05-09T01:45:39.896Z,12.42
2024-05-09T01:48:07.992Z,12.42
2024-05-09T01:50:39.667Z,12.43
2024-05-09T01:53:15.166Z,12.41
2024-05-09T01:55:42.963Z,12.41
2024-05-09T01:58:10.263Z,12.39
2024-05-09T02:00:41.063Z,12.38
2024-05-09T02:03:13.908Z,12.44
2024-05-09T02:05:43.935Z,12.44
2024-05-09T02:08:15.355Z,12.47
2024-05-09T02:10:44.166Z,12.47
2024-05-09T02:13:11.403Z,12.45
2024-05-09T02:15:38.711Z,12.50
2024-05-09T02:18:06.259Z,12.49
2024-05-09T02:20:36.470Z,12.52
2024-05-09T02:23:06.565Z,12.55
2024-05-09T02:25:34.125Z,12.54
2024-05-09T02:28:01.328Z,12.55
2024-05-09T02:32:58.166Z,12.53
2024-05-09T02:35:26.543Z,12.52
2024-05-09T02:37:53.532Z,12.52
2024-05-09T02:40:28.379Z,12.48
2024-05-09T02:43:01.098Z,12.50
2024-05-09T02:45:27.919Z,12.52
2024-05-09T02:47:55.044Z,12.52
2024-05-09T02:50:29.907Z,12.52
2024-05-09T02:53:04.013Z,12.56
2024-05-09T02:55:31.284Z,12.58
2024-05-09T02:57:58.142Z,12.58
2024-05-09T03:00:34.257Z,12.56
2024-05-09T03:03:08.472Z,12.62
2024-05-09T03:05:37.214Z,12.60
2024-05-09T03:08:04.623Z,12.65
2024-05-09T03:10:36.130Z,12.66
2024-05-09T03:13:14.827Z,12.63
2024-05-09T03:15:43.603Z,12.58
2024-05-09T03:18:11.623Z,12.63
2024-05-09T03:20:39.683Z,12.64
2024-05-09T03:23:09.156Z,12.63
2024-05-09T03:25:37.177Z,12.64
2024-05-09T03:28:04.346Z,12.66
2024-05-09T03:30:39.846Z,12.68
2024-05-09T03:33:20.220Z,12.69
2024-05-09T03:35:48.863Z,12.53
2024-05-09T03:38:16.511Z,12.69
2024-05-09T03:40:47.621Z,12.68
2024-05-09T03:43:15.454Z,12.72
2024-05-09T03:45:43.426Z,12.70
2024-05-09T03:48:10.894Z,12.74
2024-05-09T03:50:38.397Z,12.75
2024-05-09T03:53:05.770Z,12.79
2024-05-09T03:55:32.664Z,12.77
2024-05-09T03:57:59.855Z,12.84
2024-05-09T04:00:35.127Z,12.83
2024-05-09T04:03:08.780Z,12.88
2024-05-09T04:05:39.828Z,12.88
2024-05-09T04:08:07.718Z,12.88
2024-05-09T04:10:35.388Z,12.82
2024-05-09T04:13:03.909Z,12.87
2024-05-09T04:15:31.963Z,12.85
2024-05-09T04:17:59.312Z,12.81
2024-05-09T04:22:56.447Z,12.62
2024-05-09T04:25:23.321Z,12.58
2024-05-09T04:27:50.139Z,12.50
2024-05-09T04:30:25.545Z,12.47
2024-05-09T04:32:58.164Z,12.47
2024-05-09T04:35:25.307Z,12.44
2024-05-09T04:37:52.537Z,12.47
2024-05-09T04:40:28.071Z,12.48
2024-05-09T04:43:00.194Z,12.36
2024-05-09T04:45:27.143Z,12.58
2024-05-09T04:47:55.030Z,12.62
2024-05-09T04:50:30.036Z,12.66
2024-05-09T04:53:03.394Z,12.71
2024-05-09T04:55:30.543Z,12.75
2024-05-09T04:57:57.636Z,12.80
2024-05-09T05:00:32.549Z,12.81
2024-05-09T05:03:10.250Z,12.89
2024-05-09T05:05:42.286Z,12.93
2024-05-09T05:08:17.567Z,12.97
2024-05-09T05:10:46.659Z,12.97
2024-05-09T05:13:22.657Z,13.00
2024-05-09T05:15:57.278Z,12.99
2024-05-09T05:18:26.195Z,12.97
2024-05-09T05:20:53.572Z,12.96
2024-05-09T05:23:22.121Z,12.98
2024-05-09T05:25:51.434Z,12.96
2024-05-09T05:28:19.147Z,13.01
2024-05-09T05:30:46.765Z,13.01
2024-05-09T05:33:15.584Z,13.04
2024-05-09T05:35:42.969Z,13.05
2024-05-09T05:38:10.960Z,13.04
2024-05-09T05:40:39.231Z,13.06
2024-05-09T05:43:11.228Z,13.02
2024-05-09T05:45:39.100Z,12.98
2024-05-09T05:48:07.579Z,12.93
2024-05-09T05:50:37.308Z,12.90
2024-05-09T05:53:09.703Z,12.86
2024-05-09T05:55:39.402Z,12.80
2024-05-09T05:58:10.639Z,12.76
2024-05-09T06:00:39.833Z,12.68
2024-05-09T06:03:09.272Z,12.54
2024-05-09T06:05:37.427Z,12.41
2024-05-09T06:08:04.932Z,12.30
2024-05-09T06:10:38.110Z,12.18
2024-05-09T06:13:10.460Z,12.05
2024-05-09T06:15:37.577Z,11.94
2024-05-09T06:18:09.456Z,11.85
2024-05-09T06:20:39.657Z,11.80
2024-05-09T06:23:07.251Z,11.79
2024-05-09T06:25:35.720Z,11.78
2024-05-09T06:28:03.290Z,11.80
2024-05-09T06:30:37.826Z,11.85
2024-05-09T06:33:09.374Z,11.93
2024-05-09T06:35:37.451Z,11.97
2024-05-09T06:38:05.231Z,12.06
2024-05-09T06:40:37.480Z,12.17
2024-05-09T06:43:18.262Z,12.24
2024-05-09T06:45:52.834Z,12.35
2024-05-09T06:48:21.031Z,12.37
2024-05-09T06:50:48.957Z,12.44
2024-05-09T06:53:17.219Z,12.45
2024-05-09T06:55:44.240Z,12.46
2024-05-09T06:58:11.200Z,12.41
2024-05-09T07:00:40.613Z,12.33
2024-05-09T07:03:14.896Z,12.30
2024-05-09T07:05:44.450Z,12.35
2024-05-09T07:08:11.725Z,12.33
2024-05-09T07:10:38.782Z,12.36
2024-05-09T07:13:09.979Z,12.37
2024-05-09T07:15:37.086Z,12.39
2024-05-09T07:18:21.514Z,12.40
2024-05-09T07:20:49.309Z,12.40
2024-05-09T07:23:17.576Z,12.36
2024-05-09T07:25:44.595Z,12.38
2024-05-09T07:28:15.636Z,12.49
2024-05-09T07:30:43.394Z,12.54
2024-05-09T07:33:15.724Z,12.51
2024-05-09T07:35:43.392Z,12.72
2024-05-09T07:38:10.402Z,12.86
2024-05-09T07:40:38.652Z,12.98
2024-05-09T07:43:07.592Z,13.07
2024-05-09T07:52:32.683Z,13.24
2024-05-09T07:55:55.893Z,13.28
2024-05-09T07:58:27.610Z,13.29
2024-05-09T08:00:55.225Z,13.28
2024-05-09T08:03:23.443Z,13.31
2024-05-09T08:05:51.993Z,13.32
2024-05-09T08:08:18.963Z,13.33
2024-05-09T08:10:46.501Z,13.35
2024-05-09T08:13:13.780Z,13.43
2024-05-09T08:15:40.837Z,13.48
2024-05-09T08:18:08.993Z,13.57
2024-05-09T08:20:39.992Z,13.66
2024-05-09T08:23:07.285Z,13.75
2024-05-09T08:25:34.137Z,13.86
2024-05-09T08:28:01.095Z,13.94
2024-05-09T08:30:33.794Z,13.95
2024-05-09T08:33:05.113Z,13.95
2024-05-09T08:35:33.327Z,13.97
2024-05-09T08:38:02.823Z,13.98
2024-05-09T08:40:35.604Z,13.87
2024-05-09T08:43:06.950Z,13.84
2024-05-09T08:45:36.107Z,13.99
2024-05-09T08:48:07.672Z,14.02
2024-05-09T08:50:39.270Z,14.01
2024-05-09T08:53:08.101Z,13.95
2024-05-09T08:55:40.190Z,13.90
2024-05-09T08:58:12.694Z,13.78
2024-05-09T09:00:42.334Z,13.84
2024-05-09T09:03:11.671Z,13.85
2024-05-09T09:05:40.600Z,13.75
2024-05-09T09:08:08.952Z,13.67
2024-05-09T09:10:39.740Z,13.62
2024-05-09T09:13:09.777Z,13.60
2024-05-09T09:15:50.439Z,13.61
2024-05-09T09:18:18.376Z,13.57
2024-05-09T09:20:45.688Z,13.53
2024-05-09T09:23:12.693Z,13.59
2024-05-09T09:25:40.761Z,13.64
2024-05-09T09:28:08.491Z,13.65
2024-05-09T09:30:38.879Z,13.62
2024-05-09T09:33:06.861Z,13.65
2024-05-09T09:35:35.958Z,13.71
2024-05-09T09:38:04.572Z,13.82
2024-05-09T09:40:37.580Z,14.00
2024-05-09T09:43:18.765Z,14.16
2024-05-09T09:45:50.010Z,14.33
2024-05-09T09:48:17.394Z,14.53
2024-05-09T09:50:45.530Z,14.79
2024-05-09T09:53:13.103Z,14.93
2024-05-09T09:55:40.598Z,15.13
2024-05-09T09:58:09.817Z,15.18
2024-05-09T10:00:39.492Z,15.31
2024-05-09T10:03:06.876Z,15.37
2024-05-09T10:05:34.885Z,15.31
2024-05-09T10:08:05.935Z,15.35
2024-05-09T10:10:36.448Z,15.38
2024-05-09T10:13:04.754Z,15.45
2024-05-09T10:15:45.352Z,15.43
2024-05-09T10:18:12.665Z,15.38
2024-05-09T10:20:46.542Z,15.48
2024-05-09T10:23:30.697Z,15.44
2024-05-09T10:26:03.196Z,15.45
2024-05-09T10:28:37.989Z,15.46
2024-05-09T10:31:13.574Z,15.52
2024-05-09T10:33:47.793Z,15.57
2024-05-09T10:36:18.807Z,15.59
2024-05-09T10:38:45.816Z,15.67
2024-05-09T10:41:13.010Z,15.74
2024-05-09T10:43:41.782Z,15.76
2024-05-09T10:46:09.890Z,15.62
2024-05-09T10:48:37.853Z,15.58
2024-05-09T10:51:05.200Z,15.53
2024-05-09T10:53:32.463Z,15.51
2024-05-09T10:56:00.757Z,15.49
2024-05-09T10:58:28.571Z,15.40
2024-05-09T11:00:58.522Z,15.22
2024-05-09T11:03:26.260Z,15.26
2024-05-09T11:05:53.848Z,15.20
2024-05-09T11:08:24.771Z,15.18
2024-05-09T11:10:53.766Z,15.16
2024-05-09T11:13:27.947Z,15.16
2024-05-09T11:15:54.971Z,15.15
2024-05-09T11:18:25.929Z,15.16
2024-05-09T11:20:55.579Z,15.16
2024-05-09T11:23:26.275Z,15.19
2024-05-09T11:25:58.735Z,15.27
2024-05-09T11:28:28.687Z,15.45
2024-05-09T11:31:07.222Z,15.59
2024-05-09T11:33:38.205Z,15.69
2024-05-09T11:36:06.867Z,15.83
2024-05-09T11:38:34.020Z,15.97
2024-05-09T11:41:02.906Z,16.02
2024-05-09T11:43:29.889Z,16.09
2024-05-09T11:45:57.840Z,16.15
2024-05-09T11:48:25.964Z,16.17
2024-05-09T11:50:55.064Z,16.16
2024-05-09T11:53:22.055Z,16.15
2024-05-09T11:55:48.992Z,16.11
2024-05-09T11:58:18.181Z,16.21
2024-05-09T12:00:46.252Z,16.29
2024-05-09T12:03:13.561Z,16.24
2024-05-09T12:05:40.970Z,16.19
2024-05-09T12:08:08.135Z,16.12
2024-05-09T12:10:36.558Z,15.98
2024-05-09T12:13:06.020Z,15.87
2024-05-09T12:15:37.026Z,15.79
2024-05-09T12:18:06.067Z,15.85
2024-05-09T12:20:37.955Z,15.82
2024-05-09T12:23:07.656Z,15.89
2024-05-09T12:25:36.139Z,15.94
2024-05-09T12:28:03.544Z,15.99
2024-05-09T12:30:36.695Z,16.06
2024-05-09T12:33:08.859Z,16.13
2024-05-09T12:35:36.251Z,16.12
2024-05-09T12:38:03.387Z,16.10
2024-05-09T12:40:36.269Z,16.12
2024-05-09T12:43:07.276Z,16.17
2024-05-09T12:45:34.771Z,16.21
2024-05-09T12:48:01.791Z,16.12
2024-05-09T12:50:33.015Z,16.11
2024-05-09T12:53:02.591Z,16.09
2024-05-09T12:55:36.600Z,16.04
2024-05-09T12:58:08.994Z,16.03
2024-05-09T13:00:36.196Z,16.02
2024-05-09T13:03:03.664Z,16.00
2024-05-09T13:05:30.963Z,15.85
2024-05-09T13:07:58.047Z,15.89
2024-05-09T13:10:31.964Z,15.80
2024-05-09T13:13:01.304Z,15.72
2024-05-09T13:15:30.617Z,15.64
2024-05-09T13:18:00.579Z,15.61
2024-05-09T13:20:33.615Z,15.52
2024-05-09T13:23:04.666Z,15.54
2024-05-09T13:25:32.154Z,15.55
2024-05-09T13:27:59.204Z,15.58
2024-05-09T13:30:34.526Z,15.67
2024-05-09T13:33:07.195Z,15.74
2024-05-09T13:35:35.766Z,15.83
2024-05-09T13:38:04.471Z,15.88
2024-05-09T13:40:34.803Z,15.89
2024-05-09T13:43:06.504Z,15.91
2024-05-09T13:45:34.391Z,15.91
2024-05-09T13:48:06.696Z,15.83
2024-05-09T13:50:36.342Z,15.78
2024-05-09T13:53:08.452Z,15.79
2024-05-09T13:55:39.585Z,15.82
2024-05-09T13:58:07.553Z,15.83
2024-05-09T14:03:05.036Z,15.85
2024-05-09T14:05:32.070Z,15.84
2024-05-09T14:07:59.136Z,15.87
2024-05-09T14:10:30.940Z,15.87
2024-05-09T14:12:58.956Z,15.88
2024-05-09T14:15:26.052Z,15.86
2024-05-09T14:17:53.119Z,15.87
2024-05-09T14:20:29.983Z,15.80
2024-05-09T14:22:59.965Z,15.74
2024-05-09T14:25:31.988Z,15.64
2024-05-09T14:27:59.990Z,15.59
2024-05-09T14:30:34.809Z,15.59
2024-05-09T14:33:06.059Z,15.63
2024-05-09T14:35:33.821Z,15.60
2024-05-09T14:38:00.752Z,15.63
2024-05-09T14:40:37.219Z,15.64
2024-05-09T14:43:10.445Z,15.62
2024-05-09T14:45:37.600Z,15.62
2024-05-09T14:48:05.431Z,15.57
2024-05-09T14:50:37.019Z,15.44
2024-05-09T14:53:07.607Z,15.40
2024-05-09T14:55:37.518Z,15.34
2024-05-09T14:58:08.794Z,15.25
2024-05-09T15:00:45.737Z,15.16
2024-05-09T15:03:17.264Z,15.09
2024-05-09T15:05:45.184Z,15.04
2024-05-09T15:08:12.292Z,15.01
2024-05-09T15:10:39.331Z,14.98
2024-05-09T15:13:08.706Z,14.96
2024-05-09T15:15:37.676Z,14.96
2024-05-09T15:18:06.173Z,14.95
2024-05-09T15:20:36.278Z,14.96
2024-05-09T15:23:06.055Z,14.92
2024-05-09T15:25:34.407Z,14.97
2024-05-09T15:28:01.541Z,15.03
2024-05-09T15:30:31.972Z,15.06
2024-05-09T15:33:04.103Z,15.08
2024-05-09T15:35:31.502Z,15.10
2024-05-09T15:37:58.591Z,15.06
2024-05-09T15:40:35.461Z,15.15
2024-05-09T15:43:07.425Z,15.16
2024-05-09T15:45:35.172Z,15.13
2024-05-09T15:48:03.279Z,15.12
2024-05-09T15:50:37.446Z,15.10
2024-05-09T15:53:08.813Z,15.14
2024-05-09T15:55:36.659Z,15.06
2024-05-09T15:58:04.623Z,15.07
2024-05-09T16:00:37.900Z,15.04
2024-05-09T16:03:12.761Z,14.98
2024-05-09T16:05:41.669Z,14.95
2024-05-09T16:08:09.435Z,14.91
2024-05-09T16:10:43.223Z,14.89
2024-05-09T16:13:11.488Z,14.86
2024-05-09T16:15:38.526Z,14.89
2024-05-09T16:18:05.735Z,14.90
2024-05-09T16:20:39.049Z,14.90
2024-05-09T16:23:09.133Z,14.88
2024-05-09T16:25:36.799Z,14.84
2024-05-09T16:28:08.331Z,14.82
2024-05-09T16:30:37.980Z,14.80
2024-05-09T16:33:05.857Z,14.77
2024-05-09T16:35:34.618Z,14.71
2024-05-09T16:38:03.172Z,14.68
2024-05-09T16:40:37.571Z,14.66
2024-05-09T16:43:07.995Z,14.58
2024-05-09T16:45:35.444Z,14.51
2024-05-09T16:48:02.983Z,14.44
2024-05-09T16:50:34.199Z,14.42
2024-05-09T16:53:04.713Z,14.42
2024-05-09T16:55:32.423Z,14.41
2024-05-09T16:57:59.476Z,14.39
2024-05-09T17:00:36.348Z,14.34
2024-05-09T17:03:09.901Z,14.24
2024-05-09T17:05:37.807Z,14.21
2024-05-09T17:08:05.317Z,14.16
2024-05-09T17:10:34.368Z,14.20
2024-05-09T17:13:03.989Z,14.17
2024-05-09T17:15:32.657Z,14.05
2024-05-09T17:17:59.908Z,14.04
2024-05-09T17:20:33.025Z,14.02
2024-05-09T17:23:05.104Z,13.99
2024-05-09T17:25:32.800Z,13.89
2024-05-09T17:28:06.503Z,13.82
2024-05-09T17:30:37.034Z,13.69
2024-05-09T17:33:07.995Z,13.59
2024-05-09T17:35:36.530Z,13.54
2024-05-09T17:38:05.100Z,13.47
2024-05-09T17:40:35.783Z,13.35
2024-05-09T17:43:05.582Z,13.25
2024-05-09T17:45:33.303Z,13.32
2024-05-09T17:48:01.334Z,13.23
2024-05-09T17:50:35.140Z,13.15
2024-05-09T17:53:05.430Z,13.00
2024-05-09T17:55:32.653Z,12.90
2024-05-09T17:57:59.733Z,12.81
2024-05-09T18:00:37.476Z,12.71
2024-05-09T18:03:08.970Z,12.63
2024-05-09T18:05:37.160Z,12.54
2024-05-09T18:08:05.482Z,12.42
2024-05-09T18:10:36.871Z,12.34
2024-05-09T18:13:07.522Z,12.18
2024-05-09T18:15:34.881Z,12.04
2024-05-09T18:18:02.457Z,11.91
2024-05-09T18:20:39.288Z,11.95
2024-05-09T18:23:10.902Z,11.88
2024-05-09T18:25:38.772Z,11.80
2024-05-09T18:28:06.646Z,11.74
2024-05-09T18:30:36.433Z,11.67
2024-05-09T18:33:09.513Z,11.55
2024-05-09T18:35:36.997Z,11.46
2024-05-09T18:38:05.353Z,11.39
2024-05-09T18:40:36.079Z,11.24
2024-05-09T18:43:07.175Z,11.10
2024-05-09T18:45:36.606Z,11.05
2024-05-09T18:48:05.391Z,10.97
2024-05-09T18:50:37.276Z,10.92
2024-05-09T18:53:07.089Z,10.88
2024-05-09T18:55:34.103Z,10.78
2024-05-09T18:58:01.266Z,10.73
2024-05-09T19:00:34.689Z,10.57
2024-05-09T19:03:09.852Z,10.63
2024-05-09T19:05:39.648Z,10.55
2024-05-09T19:08:07.942Z,10.57
2024-05-09T19:10:36.460Z,10.51
2024-05-09T19:13:08.651Z,10.48
2024-05-09T19:15:39.496Z,10.39
2024-05-09T19:18:07.664Z,10.32
2024-05-09T19:20:36.338Z,10.24
2024-05-09T19:23:06.050Z,10.14
2024-05-09T19:25:33.592Z,10.13
2024-05-09T19:28:01.228Z,10.07
2024-05-09T19:30:37.768Z,9.99
2024-05-09T19:33:09.234Z,9.93
2024-05-09T19:35:36.788Z,9.89
2024-05-09T19:38:04.176Z,9.89
2024-05-09T19:40:33.401Z,9.85
2024-05-09T19:43:02.836Z,9.79
2024-05-09T19:45:30.789Z,9.76
2024-05-09T19:47:58.021Z,9.72
2024-05-09T19:50:32.845Z,9.66
2024-05-09T19:53:08.339Z,9.57
2024-05-09T19:55:35.400Z,9.47
2024-05-09T19:58:05.376Z,9.46
2024-05-09T20:00:39.817Z,9.36
2024-05-09T20:03:09.764Z,9.39
2024-05-09T20:05:37.780Z,9.38
2024-05-09T20:08:05.962Z,9.37
2024-05-09T20:10:35.384Z,9.34
2024-05-09T20:13:04.954Z,9.35
2024-05-09T20:15:34.919Z,9.32
2024-05-09T20:18:02.583Z,9.28
2024-05-09T20:20:37.575Z,9.25
2024-05-09T20:23:08.967Z,9.22
2024-05-09T20:25:35.944Z,9.09
2024-05-09T20:28:02.998Z,9.16
2024-05-09T20:30:32.916Z,9.16
2024-05-09T20:33:07.068Z,9.14
2024-05-09T20:35:35.525Z,9.02
2024-05-09T20:38:03.534Z,9.05
2024-05-09T20:40:35.437Z,8.99
2024-05-09T20:43:05.892Z,8.94
2024-05-09T20:45:33.599Z,8.97
2024-05-09T20:48:00.840Z,8.88
2024-05-09T20:50:38.430Z,8.80
2024-05-09T20:53:13.539Z,8.75
2024-05-09T20:55:46.926Z,8.79
2024-05-09T20:58:14.229Z,8.70
2024-05-09T21:00:44.442Z,8.65
2024-05-09T21:03:15.939Z,8.62
2024-05-09T21:05:44.063Z,8.38
2024-05-09T21:08:11.123Z,8.55
2024-05-09T21:10:38.846Z,8.49
2024-05-09T21:13:07.004Z,8.48
2024-05-09T21:15:34.946Z,8.50
2024-05-09T21:18:02.384Z,8.48
2024-05-09T21:20:32.906Z,8.38
2024-05-09T21:23:01.349Z,8.37
2024-05-09T21:25:28.681Z,8.18
2024-05-09T21:27:55.818Z,8.30
2024-05-09T21:30:32.402Z,8.14
2024-05-09T21:33:12.527Z,8.22
2024-05-09T21:35:42.141Z,8.06
2024-05-09T21:38:09.945Z,7.96
2024-05-09T21:40:38.149Z,7.91
2024-05-09T21:43:07.718Z,7.91
2024-05-09T21:45:36.098Z,7.82
2024-05-09T21:48:04.291Z,7.92
2024-05-09T21:50:38.678Z,7.68
2024-05-09T21:53:08.312Z,7.74
2024-05-09T21:55:35.348Z,7.65
2024-05-09T21:58:03.044Z,7.70
2024-05-09T22:00:36.355Z,7.58
2024-05-09T22:03:06.859Z,7.68
2024-05-09T22:05:34.640Z,7.52
2024-05-09T22:08:01.842Z,7.64
2024-05-09T22:10:34.182Z,7.56
2024-05-09T22:13:04.703Z,7.61
2024-05-09T22:15:37.430Z,7.58
2024-05-09T22:18:06.592Z,7.53
2024-05-09T22:20:37.731Z,7.48
2024-05-09T22:23:07.229Z,7.32
2024-05-09T22:25:34.482Z,7.44
2024-05-09T22:28:02.426Z,7.28
2024-05-09T22:33:00.050Z,7.18
2024-05-09T22:35:27.075Z,7.22
2024-05-09T22:37:54.024Z,7.32
2024-05-09T22:40:29.410Z,7.24
2024-05-09T22:43:06.122Z,7.16
2024-05-09T22:45:33.220Z,7.25
2024-05-09T22:48:00.570Z,7.20
2024-05-09T22:50:32.828Z,7.22
2024-05-09T22:53:00.734Z,7.15
2024-05-09T22:55:27.795Z,7.15
2024-05-09T22:57:55.352Z,7.12
2024-05-09T23:00:30.842Z,7.09
2024-05-09T23:03:03.025Z,7.14
2024-05-09T23:05:32.060Z,7.09
2024-05-09T23:08:00.991Z,6.96
2024-05-09T23:10:35.260Z,7.11
2024-05-09T23:13:04.586Z,6.96
2024-05-09T23:15:31.799Z,7.01
2024-05-09T23:17:59.267Z,6.93
2024-05-09T23:20:33.884Z,6.97
2024-05-09T23:23:06.660Z,6.81
2024-05-09T23:25:33.791Z,6.66
2024-05-09T23:28:02.033Z,6.69
2024-05-09T23:30:36.970Z,6.76
2024-05-09T23:33:07.560Z,6.75
2024-05-09T23:35:34.762Z,6.51
2024-05-09T23:38:02.186Z,6.63
2024-05-09T23:42:59.157Z,6.62
2024-05-09T23:45:26.222Z,6.26
2024-05-09T23:47:53.580Z,6.52
2024-05-09T23:50:26.847Z,6.40
2024-05-09T23:53:01.499Z,6.41
2024-05-09T23:55:29.440Z,6.42
2024-05-09T23:57:56.438Z,6.35
